Time;durP1;ratioP1;P1;durP2;ratioP2;P2;SDS_P1;SDS_P2;PMS_P1;PMS_P2;Temp;Humidity;BMP_temperature;BMP_pressure;BME280_temperature;BME280_humidity;BME280_pressure;Samples;Min_cycle;Max_cycle;Signal;HPM_P1;HPM_P2
2022/12/19 00:01:29;;;;;;;33.00;16.00;;;;;;;-2.27;100.00;98195.50;5043253;28;20519;-61
2022/12/19 00:03:59;;;;;;;28.90;14.68;;;;;;;-2.21;100.00;98188.78;5045876;28;20128;-60
2022/12/19 00:06:27;;;;;;;32.25;15.35;;;;;;;-2.22;100.00;98187.94;5041015;28;20064;-61
2022/12/19 00:08:55;;;;;;;34.65;16.23;;;;;;;-2.23;100.00;98182.75;5039655;28;20045;-61
2022/12/19 00:11:23;;;;;;;32.33;16.30;;;;;;;-2.27;100.00;98178.75;5064450;28;20093;-61
2022/12/19 00:13:49;;;;;;;37.55;17.48;;;;;;;-2.17;100.00;98173.38;5047056;28;20049;-60
2022/12/19 00:16:25;;;;;;;46.05;20.35;;;;;;;-2.16;100.00;98162.63;5033032;28;20045;-60
2022/12/19 00:18:53;;;;;;;44.45;21.02;;;;;;;-2.21;100.00;98162.25;5046360;28;20051;-61
2022/12/19 00:21:23;;;;;;;38.05;18.92;;;;;;;-2.17;100.00;98157.44;5044020;28;20123;-61
2022/12/19 00:23:50;;;;;;;38.60;18.13;;;;;;;-2.17;99.62;98171.56;5045788;28;20132;-60
2022/12/19 00:26:19;;;;;;;35.58;18.52;;;;;;;-2.24;99.82;98167.84;5045204;28;20534;-60
2022/12/19 00:28:57;;;;;;;32.80;16.50;;;;;;;-2.18;99.36;98161.09;5042501;28;20029;-60
2022/12/19 00:31:27;;;;;;;38.58;19.00;;;;;;;-2.35;100.00;98155.63;5043496;28;20094;-61
2022/12/19 00:33:54;;;;;;;37.20;18.38;;;;;;;-2.42;100.00;98163.34;5046140;28;20033;-61
2022/12/19 00:36:23;;;;;;;37.65;17.85;;;;;;;-2.39;100.00;98160.38;5041445;28;20072;-60
2022/12/19 00:38:52;;;;;;;37.42;16.75;;;;;;;-2.41;100.00;98158.84;5025855;28;20128;-61
2022/12/19 00:41:21;;;;;;;37.80;18.52;;;;;;;-2.44;100.00;98162.63;5023818;28;20062;-60
2022/12/19 00:43:52;;;;;;;34.05;18.02;;;;;;;-2.40;100.00;98153.41;5025539;28;20447;-61
2022/12/19 00:46:19;;;;;;;35.95;16.95;;;;;;;-2.40;100.00;98153.41;5025530;28;20076;-61
2022/12/19 00:48:46;;;;;;;38.65;18.55;;;;;;;-2.46;100.00;98148.72;5033392;28;20041;-61
2022/12/19 00:51:15;;;;;;;35.45;18.33;;;;;;;-2.42;100.00;98144.78;5041947;28;20090;-60
2022/12/19 00:53:43;;;;;;;38.13;15.75;;;;;;;-2.36;100.00;98143.34;5045863;28;20140;-60
2022/12/19 00:56:16;;;;;;;36.25;18.10;;;;;;;-2.28;100.00;98139.94;5044706;28;20068;-60
2022/12/19 00:58:43;;;;;;;41.20;20.00;;;;;;;-2.31;100.00;98138.44;5038098;28;20165;-60
2022/12/19 01:01:22;;;;;;;40.78;20.52;;;;;;;-2.40;100.00;98137.50;5035480;28;20041;-62
2022/12/19 01:03:49;;;;;;;37.88;18.17;;;;;;;-2.45;100.00;98130.97;5045337;28;20068;-62
2022/12/19 01:06:35;;;;;;;38.97;18.42;;;;;;;-2.49;100.00;98125.97;5037932;28;20433;-61
2022/12/19 01:09:07;;;;;;;40.00;19.27;;;;;;;-2.40;100.00;98126.06;5045180;28;20596;-61
2022/12/19 01:14:18;;;;;;;37.97;17.55;;;;;;;-2.32;100.00;98128.78;5045277;28;20496;-61
2022/12/19 01:16:49;;;;;;;43.13;18.58;;;;;;;-2.32;100.00;98125.31;5043641;28;20450;-61
2022/12/19 01:19:18;;;;;;;38.70;18.98;;;;;;;-2.28;100.00;98134.63;5036637;28;20068;-61
2022/12/19 01:21:44;;;;;;;34.65;16.80;;;;;;;-2.22;100.00;98129.56;5032517;28;20107;-61
2022/12/19 01:24:11;;;;;;;37.80;18.42;;;;;;;-2.20;100.00;98128.56;5042062;28;20046;-62
2022/12/19 01:26:39;;;;;;;36.90;18.88;;;;;;;-2.24;100.00;98131.50;5043951;28;20047;-61
2022/12/19 01:29:05;;;;;;;42.47;18.75;;;;;;;-2.17;100.00;98123.81;5045047;28;20048;-60
2022/12/19 01:31:32;;;;;;;37.33;18.27;;;;;;;-2.14;100.00;98130.63;5047015;28;20041;-60
2022/12/19 01:34:01;;;;;;;38.58;17.02;;;;;;;-2.13;100.00;98126.97;5048446;28;20072;-61
2022/12/19 01:36:28;;;;;;;37.97;18.90;;;;;;;-2.13;100.00;98130.44;5047673;28;20041;-60
2022/12/19 01:38:56;;;;;;;37.40;18.52;;;;;;;-2.16;100.00;98124.63;5047045;28;20499;-61
2022/12/19 01:41:22;;;;;;;36.28;18.88;;;;;;;-2.21;100.00;98117.13;5041443;28;20655;-60
2022/12/19 01:44:06;;;;;;;35.33;17.63;;;;;;;-2.19;100.00;98115.16;5038271;28;20048;-61
2022/12/19 01:46:44;;;;;;;39.55;18.48;;;;;;;-2.15;100.00;98113.84;5039737;28;20102;-62
2022/12/19 01:49:17;;;;;;;40.67;19.13;;;;;;;-2.18;100.00;98105.38;5031759;28;20215;-62
2022/12/19 01:51:48;;;;;;;35.22;19.08;;;;;;;-2.21;100.00;98095.91;5045716;28;20052;-62
2022/12/19 01:54:24;;;;;;;38.75;17.98;;;;;;;-2.26;100.00;98085.75;5048517;28;20115;-60
2022/12/19 01:56:54;;;;;;;41.15;20.85;;;;;;;-2.16;100.00;98090.97;5047287;28;20052;-62
2022/12/19 01:59:28;;;;;;;37.72;17.02;;;;;;;-2.12;100.00;98087.03;5048035;28;20037;-62
2022/12/19 02:02:02;;;;;;;40.47;18.67;;;;;;;-2.10;100.00;98078.91;5025749;28;20048;-61
2022/12/19 02:04:30;;;;;;;37.95;18.30;;;;;;;-2.04;100.00;98075.63;5028058;28;20041;-61
2022/12/19 02:07:00;;;;;;;37.95;19.08;;;;;;;-1.97;100.00;98074.03;5027029;28;20076;-61
2022/12/19 02:09:47;;;;;;;37.40;19.35;;;;;;;-1.86;100.00;98070.31;5023952;28;20047;-61
2022/12/19 02:12:24;;;;;;;34.03;18.33;;;;;;;-1.80;100.00;98060.06;5046762;28;20507;-62
2022/12/19 02:14:54;;;;;;;40.40;19.00;;;;;;;-1.68;100.00;98064.13;5061573;28;20051;-62
2022/12/19 02:17:48;;;;;;;36.53;16.40;;;;;;;-1.61;100.00;98056.34;5044233;28;20120;-61
2022/12/19 02:20:29;;;;;;;36.00;15.45;;;;;;;-1.50;100.00;98052.59;5044279;28;20061;-62
2022/12/19 02:23:05;;;;;;;29.23;16.05;;;;;;;-1.43;100.00;98051.00;5046366;28;20048;-62
2022/12/19 02:25:58;;;;;;;29.83;14.20;;;;;;;-1.30;100.00;98045.22;5036343;28;20067;-60
2022/12/19 02:28:42;;;;;;;31.92;14.80;;;;;;;-1.27;100.00;98055.53;5027795;28;20128;-60
2022/12/19 02:31:29;;;;;;;33.78;14.75;;;;;;;-1.16;100.00;98056.22;5024223;28;20064;-60
2022/12/19 02:34:19;;;;;;;32.03;13.27;;;;;;;-1.15;100.00;98057.94;5026190;28;20217;-61
2022/12/19 02:37:01;;;;;;;31.55;13.95;;;;;;;-1.07;100.00;98060.63;5026528;28;20428;-62
2022/12/19 02:39:54;;;;;;;31.98;15.10;;;;;;;-0.91;100.00;98065.16;5038872;28;20040;-62
2022/12/19 02:42:30;;;;;;;26.45;12.20;;;;;;;-0.53;98.23;98083.38;5045023;28;20060;-61
2022/12/19 02:45:01;;;;;;;31.63;14.27;;;;;;;-0.46;97.43;98089.72;5045500;28;20072;-61
2022/12/19 02:47:31;;;;;;;29.17;14.13;;;;;;;-0.54;98.47;98089.69;5046028;28;20052;-59
2022/12/19 02:49:59;;;;;;;31.75;15.52;;;;;;;-0.60;98.83;98087.66;5045569;28;20492;-62
2022/12/19 02:52:26;;;;;;;27.05;13.95;;;;;;;-0.70;99.62;98067.38;5045539;28;20048;-62
2022/12/19 02:55:00;;;;;;;32.22;15.82;;;;;;;-0.72;99.96;98061.38;5046110;28;20778;-61
2022/12/19 02:57:39;;;;;;;27.52;14.02;;;;;;;-0.76;100.00;98046.75;5045804;28;20057;-61
2022/12/19 03:00:28;;;;;;;32.72;15.60;;;;;;;-0.79;100.00;98042.59;5046868;28;20127;-61
2022/12/19 03:03:00;;;;;;;29.20;13.68;;;;;;;-0.67;99.95;98055.56;5045904;28;20041;-62
2022/12/19 03:05:36;;;;;;;29.25;13.40;;;;;;;-0.49;98.49;98063.44;5045615;28;20707;-61
2022/12/19 03:08:12;;;;;;;27.63;12.63;;;;;;;-0.36;97.93;98060.28;5046324;28;20044;-61
2022/12/19 03:10:53;;;;;;;28.77;13.80;;;;;;;-0.35;97.77;98061.09;5028057;28;20061;-61
2022/12/19 03:13:31;;;;;;;29.67;12.88;;;;;;;-0.32;97.89;98063.44;5037705;28;20501;-61
2022/12/19 03:16:01;;;;;;;33.75;15.70;;;;;;;-0.31;97.95;98071.28;5026456;28;20046;-61
2022/12/19 03:18:30;;;;;;;27.40;14.27;;;;;;;-0.26;97.48;98078.75;5051969;28;20053;-60
2022/12/19 03:21:30;;;;;;;28.40;14.20;;;;;;;-0.32;97.81;98077.59;5032931;28;20049;-61
2022/12/19 03:23:57;;;;;;;32.75;16.10;;;;;;;-0.45;98.97;98075.41;5036665;28;20048;-62
2022/12/19 03:26:28;;;;;;;24.10;13.13;;;;;;;-0.36;98.35;98080.75;5026165;28;20088;-60
2022/12/19 03:29:10;;;;;;;31.05;13.63;;;;;;;-0.45;98.61;98075.41;5037846;28;20083;-61
2022/12/19 03:31:38;;;;;;;30.42;14.25;;;;;;;-0.47;98.98;98082.72;5044272;28;20053;-61
2022/12/19 03:34:28;;;;;;;24.90;13.25;;;;;;;-0.44;99.48;98079.72;5046046;28;20047;-61
2022/12/19 03:37:00;;;;;;;30.65;12.30;;;;;;;-0.27;97.77;98075.28;5045969;28;20041;-62
2022/12/19 03:39:28;;;;;;;;;;;;;;;-0.12;97.12;98071.94;5046607;28;20094;-62
2022/12/19 03:44:43;;;;;;;25.08;12.50;;;;;;;-0.16;97.21;98074.13;5025442;28;20045;-62
2022/12/19 03:47:43;;;;;;;26.77;13.20;;;;;;;-0.16;97.17;98063.47;5036936;28;20060;-63
2022/12/19 03:50:10;;;;;;;24.67;13.32;;;;;;;-0.17;97.63;98064.47;5043879;28;20463;-62
2022/12/19 03:52:42;;;;;;;28.80;14.05;;;;;;;-0.07;96.72;98052.81;5043514;28;20051;-62
2022/12/19 03:55:18;;;;;;;23.45;11.32;;;;;;;0.01;96.32;98060.81;5046218;28;20094;-62
2022/12/19 03:58:17;;;;;;;31.98;14.73;;;;;;;0.05;96.67;98059.47;5043091;28;20053;-62
2022/12/19 04:00:47;;;;;;;25.00;12.15;;;;;;;0.10;96.27;98062.47;5029617;28;20311;-62
2022/12/19 04:03:16;;;;;;;25.13;13.00;;;;;;;0.02;96.75;98072.28;5038552;28;20049;-61
2022/12/19 04:05:46;;;;;;;23.00;12.27;;;;;;;0.09;96.98;98067.94;5038715;28;20128;-61
2022/12/19 04:08:13;;;;;;;22.52;11.25;;;;;;;0.10;97.21;98065.13;5045769;28;20052;-61
2022/12/19 04:10:50;;;;;;;24.63;12.60;;;;;;;0.11;97.49;98066.78;5047822;28;20045;-62
2022/12/19 04:13:21;;;;;;;27.23;13.57;;;;;;;0.10;98.39;98074.94;5041764;28;20102;-61
2022/12/19 04:16:15;;;;;;;26.20;12.95;;;;;;;0.07;99.04;98075.28;5033897;28;20049;-62
2022/12/19 04:18:47;;;;;;;28.15;12.50;;;;;;;0.14;98.38;98073.59;5043033;28;20170;-62
2022/12/19 04:21:21;;;;;;;24.23;12.00;;;;;;;0.14;98.56;98076.25;5034189;28;20041;-61
2022/12/19 04:23:55;;;;;;;29.50;13.80;;;;;;;0.10;99.53;98078.44;5043150;28;20079;-62
2022/12/19 04:26:23;;;;;;;20.77;11.40;;;;;;;0.22;98.53;98078.94;5045575;28;20079;-61
2022/12/19 04:28:54;;;;;;;26.35;12.18;;;;;;;0.29;97.29;98081.75;5033364;28;20096;-62
2022/12/19 04:31:22;;;;;;;23.15;11.38;;;;;;;0.33;97.75;98079.59;5024483;28;20068;-61
2022/12/19 04:33:49;;;;;;;26.27;11.77;;;;;;;0.34;97.80;98076.75;5045167;28;20045;-62
2022/12/19 04:36:15;;;;;;;22.65;10.60;;;;;;;0.38;97.43;98078.06;5043125;28;20056;-60
2022/12/19 04:38:42;;;;;;;22.75;12.40;;;;;;;0.41;97.52;98074.25;5045373;28;20575;-61
2022/12/19 04:41:08;;;;;;;25.77;12.85;;;;;;;0.37;98.36;98081.75;5043978;28;20049;-61
2022/12/19 04:43:35;;;;;;;23.17;11.85;;;;;;;0.38;98.59;98072.75;5045598;28;20052;-62
2022/12/19 04:46:01;;;;;;;26.55;12.75;;;;;;;0.38;98.79;98078.06;5045120;28;20432;-60
2022/12/19 04:48:28;;;;;;;22.75;11.82;;;;;;;0.37;99.74;98080.94;5043533;28;20107;-61
2022/12/19 04:50:55;;;;;;;23.63;11.18;;;;;;;0.51;99.12;98082.88;5042924;28;20413;-62
2022/12/19 04:53:22;;;;;;;24.23;11.73;;;;;;;0.59;98.22;98078.56;5045666;28;20063;-62
2022/12/19 04:55:48;;;;;;;30.65;13.05;;;;;;;0.54;98.56;98079.06;5043284;28;20107;-61
2022/12/19 04:58:14;;;;;;;28.13;11.40;;;;;;;0.55;98.96;98082.56;5044135;28;20041;-61
2022/12/19 05:00:47;;;;;;;20.88;11.63;;;;;;;0.63;98.69;98071.88;5043674;28;20423;-62
2022/12/19 05:03:13;;;;;;;20.77;10.90;;;;;;;0.64;98.69;98076.19;5045358;28;20097;-61
2022/12/19 05:05:40;;;;;;;20.42;10.68;;;;;;;0.66;98.94;98066.19;5046205;28;20041;-61
2022/12/19 05:08:07;;;;;;;22.38;10.88;;;;;;;0.78;98.72;98075.47;5047998;28;20048;-62
2022/12/19 05:10:35;;;;;;;22.08;9.80;;;;;;;0.89;98.40;98074.28;5047334;28;20037;-62
2022/12/19 05:13:01;;;;;;;18.00;9.52;;;;;;;0.92;98.08;98069.63;5048605;28;20136;-62
2022/12/19 05:15:28;;;;;;;23.65;11.32;;;;;;;0.90;98.26;98067.97;5042711;28;20135;-62
2022/12/19 05:17:56;;;;;;;21.15;11.20;;;;;;;0.89;98.41;98066.28;5045625;28;20501;-62
2022/12/19 05:20:22;;;;;;;25.33;11.13;;;;;;;0.87;99.14;98060.31;5046343;28;20550;-60
2022/12/19 05:22:49;;;;;;;23.38;11.77;;;;;;;0.76;100.00;98060.66;5046193;28;20333;-62
2022/12/19 05:25:16;;;;;;;24.92;12.00;;;;;;;0.80;100.00;98061.19;5038602;28;20049;-62
2022/12/19 05:27:42;;;;;;;25.92;12.77;;;;;;;0.84;100.00;98059.78;5041297;28;20048;-62
2022/12/19 05:30:09;;;;;;;26.38;11.45;;;;;;;0.92;99.56;98061.63;5035710;28;20123;-60
2022/12/19 05:32:36;;;;;;;21.38;11.52;;;;;;;0.97;99.52;98059.25;5037065;28;20041;-62
2022/12/19 05:35:02;;;;;;;22.70;10.80;;;;;;;0.85;100.00;98056.97;5042673;28;20032;-62
2022/12/19 05:37:29;;;;;;;27.90;12.45;;;;;;;0.84;100.00;98057.97;5046544;28;20045;-61
2022/12/19 05:39:56;;;;;;;23.58;11.90;;;;;;;0.81;100.00;98058.31;5048452;28;20120;-61
2022/12/19 05:42:25;;;;;;;21.70;10.88;;;;;;;0.86;100.00;98061.31;5046588;28;20041;-61
2022/12/19 05:44:51;;;;;;;25.45;11.60;;;;;;;0.94;100.00;98063.09;5048597;28;20065;-61
2022/12/19 05:47:19;;;;;;;26.08;11.20;;;;;;;1.09;99.64;98055.22;5048370;28;20040;-61
2022/12/19 05:49:45;;;;;;;25.25;11.90;;;;;;;1.10;99.42;98053.38;5041541;28;20076;-60
2022/12/19 05:52:12;;;;;;;26.67;12.55;;;;;;;1.08;99.36;98061.56;5026533;28;20049;-62
2022/12/19 05:54:38;;;;;;;23.13;12.90;;;;;;;1.13;99.16;98056.53;5027632;28;20045;-61
2022/12/19 05:57:05;;;;;;;24.60;11.57;;;;;;;1.14;98.90;98057.38;5033914;28;20055;-61
2022/12/19 05:59:31;;;;;;;23.13;11.63;;;;;;;1.19;98.96;98052.34;5048239;28;20029;-62
2022/12/19 06:01:58;;;;;;;25.83;12.13;;;;;;;1.14;98.90;98049.38;5045530;28;20131;-61
2022/12/19 06:04:25;;;;;;;25.40;11.52;;;;;;;1.12;99.49;98049.53;5047575;28;20080;-59
2022/12/19 06:06:51;;;;;;;25.67;12.63;;;;;;;0.93;100.00;98047.28;5046030;28;20041;-58
2022/12/19 06:09:18;;;;;;;22.35;11.63;;;;;;;0.89;100.00;98039.63;5047574;28;20099;-57
2022/12/19 06:11:45;;;;;;;25.70;12.98;;;;;;;0.92;100.00;98041.09;5045450;28;20047;-59
2022/12/19 06:14:11;;;;;;;24.85;12.52;;;;;;;0.87;100.00;98038.97;5047844;28;20033;-59
2022/12/19 06:16:38;;;;;;;26.63;12.50;;;;;;;0.90;100.00;98040.47;5046408;28;20053;-58
2022/12/19 06:19:05;;;;;;;24.92;11.85;;;;;;;0.95;100.00;98046.09;5044031;28;20417;-59
2022/12/19 06:21:31;;;;;;;24.52;13.10;;;;;;;0.93;100.00;98039.28;5045429;28;20524;-59
2022/12/19 06:23:58;;;;;;;23.23;12.55;;;;;;;0.95;100.00;98045.28;5047458;28;20080;-58
2022/12/19 06:26:24;;;;;;;24.02;12.15;;;;;;;1.00;100.00;98048.25;5041393;28;20497;-57
2022/12/19 06:28:51;;;;;;;22.27;10.80;;;;;;;1.00;100.00;98038.41;5041863;28;20249;-59
2022/12/19 06:31:20;;;;;;;25.63;12.20;;;;;;;1.00;100.00;98029.59;5046090;28;20451;-59
2022/12/19 06:33:47;;;;;;;26.50;12.77;;;;;;;0.99;100.00;98034.06;5046964;28;20134;-58
2022/12/19 06:36:24;;;;;;;27.08;13.52;;;;;;;1.02;100.00;98041.75;5047059;28;20551;-58
2022/12/19 06:38:53;;;;;;;29.80;13.95;;;;;;;1.04;100.00;98044.25;5047034;28;20107;-58
2022/12/19 06:44:09;;;;;;;19.70;10.13;;;;;;;1.16;100.00;98047.34;5047452;28;20045;-58
2022/12/19 06:46:38;;;;;;;23.95;12.27;;;;;;;1.20;100.00;98042.47;5046952;28;20306;-59
2022/12/19 06:49:05;;;;;;;29.83;14.20;;;;;;;1.22;100.00;98054.63;5043673;28;20366;-59
2022/12/19 06:51:32;;;;;;;22.58;11.77;;;;;;;1.32;100.00;98053.59;5039265;28;20153;-58
2022/12/19 06:53:58;;;;;;;24.42;10.48;;;;;;;1.35;100.00;98056.75;5047609;28;20044;-59
2022/12/19 06:56:25;;;;;;;26.13;11.65;;;;;;;1.39;100.00;98047.38;5047325;28;20120;-58
2022/12/19 06:58:52;;;;;;;27.83;13.02;;;;;;;1.39;100.00;98049.22;5045845;28;20102;-56
2022/12/19 07:01:20;;;;;;;29.15;15.85;;;;;;;1.38;100.00;98043.06;5045300;28;20041;-58
2022/12/19 07:03:48;;;;;;;20.10;10.95;;;;;;;1.36;100.00;98042.38;5045825;28;20064;-58
2022/12/19 07:06:15;;;;;;;22.35;10.77;;;;;;;1.39;100.00;98047.38;5045986;28;20072;-59
2022/12/19 07:08:41;;;;;;;24.70;10.88;;;;;;;1.42;100.00;98051.53;5046346;28;20120;-59
2022/12/19 07:11:08;;;;;;;20.42;10.75;;;;;;;1.51;100.00;98050.47;5044872;28;20059;-58
2022/12/19 07:13:34;;;;;;;17.30;9.35;;;;;;;1.57;100.00;98040.94;5046706;28;20126;-59
2022/12/19 07:16:03;;;;;;;21.65;12.02;;;;;;;1.54;100.00;98038.59;5046374;28;20103;-57
2022/12/19 07:18:34;;;;;;;20.83;10.05;;;;;;;1.62;100.00;98037.75;5034640;28;20052;-58
2022/12/19 07:21:03;;;;;;;20.63;10.00;;;;;;;1.65;100.00;98029.34;5034391;28;20068;-58
2022/12/19 07:23:30;;;;;;;19.25;8.98;;;;;;;1.84;99.50;98048.59;5042050;28;20037;-56
2022/12/19 07:25:57;;;;;;;20.33;10.00;;;;;;;1.91;98.43;98042.34;5037851;28;20060;-58
2022/12/19 07:28:23;;;;;;;18.65;9.52;;;;;;;1.97;98.28;98050.66;5037214;28;20060;-59
2022/12/19 07:30:50;;;;;;;18.92;10.57;;;;;;;1.92;98.41;98048.53;5039780;28;20276;-60
2022/12/19 07:33:17;;;;;;;19.20;9.30;;;;;;;1.98;98.24;98055.00;5049253;28;20159;-59
2022/12/19 07:35:47;;;;;;;18.10;10.07;;;;;;;1.96;98.40;98049.81;5044622;28;20214;-59
2022/12/19 07:38:13;;;;;;;19.73;10.13;;;;;;;1.92;98.57;98048.53;5048818;28;20458;-57
2022/12/19 07:40:40;;;;;;;20.25;10.43;;;;;;;1.87;98.48;98043.72;5057697;28;20068;-58
2022/12/19 07:43:06;;;;;;;19.85;9.85;;;;;;;1.91;98.44;98046.84;5042754;28;20049;-58
2022/12/19 07:45:36;;;;;;;20.95;10.25;;;;;;;1.98;98.36;98047.78;5043571;28;20304;-58
2022/12/19 07:48:05;;;;;;;22.63;10.40;;;;;;;1.98;98.30;98046.97;5051035;28;20071;-58
2022/12/19 07:50:32;;;;;;;15.93;7.82;;;;;;;2.01;98.01;98055.47;5057435;28;20078;-57
2022/12/19 07:52:59;;;;;;;17.55;9.23;;;;;;;2.08;97.90;98060.91;5044057;28;20049;-59
2022/12/19 07:55:26;;;;;;;17.35;9.25;;;;;;;2.23;97.09;98052.94;5051800;28;20048;-59
2022/12/19 07:57:54;;;;;;;15.77;8.35;;;;;;;2.36;96.22;98051.47;5051365;28;20037;-59
2022/12/19 08:00:21;;;;;;;20.83;9.35;;;;;;;2.24;96.79;98061.78;5060158;28;20045;-60
2022/12/19 08:02:47;;;;;;;18.23;10.88;;;;;;;2.21;96.91;98065.63;5051816;28;20576;-57
2022/12/19 08:05:15;;;;;;;20.27;9.98;;;;;;;2.25;96.60;98063.44;5045530;28;20439;-57
2022/12/19 08:07:42;;;;;;;16.23;9.18;;;;;;;2.17;97.15;98070.50;5039970;28;20131;-59
2022/12/19 08:10:11;;;;;;;20.73;10.90;;;;;;;2.10;97.29;98058.88;5039153;28;20053;-59
2022/12/19 08:12:37;;;;;;;17.45;9.27;;;;;;;2.12;97.61;98066.72;5041699;28;20044;-59
2022/12/19 08:15:04;;;;;;;16.95;8.52;;;;;;;2.09;97.72;98062.56;5043219;28;20094;-58
2022/12/19 08:17:33;;;;;;;22.00;9.30;;;;;;;2.17;97.54;98070.50;5046935;28;20041;-60
2022/12/19 08:20:00;;;;;;;18.08;8.90;;;;;;;2.25;97.15;98071.47;5045037;28;20103;-59
2022/12/19 08:22:28;;;;;;;19.63;9.25;;;;;;;2.23;97.27;98068.97;5041282;28;20056;-58
2022/12/19 08:24:56;;;;;;;16.88;9.23;;;;;;;2.21;97.27;98066.47;5042108;28;20045;-59
2022/12/19 08:27:23;;;;;;;19.50;9.93;;;;;;;2.34;97.06;98065.88;5042664;28;20056;-57
2022/12/19 08:29:49;;;;;;;19.48;8.90;;;;;;;2.37;96.88;98064.66;5058790;28;20049;-59
2022/12/19 08:32:16;;;;;;;20.17;9.50;;;;;;;2.36;97.10;98062.16;5049792;28;20551;-59
2022/12/19 08:34:47;;;;;;;17.65;9.90;;;;;;;2.31;97.12;98060.88;5056073;28;20485;-59
2022/12/19 08:37:14;;;;;;;15.23;8.93;;;;;;;2.38;96.46;98060.13;5043029;28;20049;-58
2022/12/19 08:39:40;;;;;;;16.95;9.32;;;;;;;2.35;96.26;98055.97;5047841;28;20049;-58
2022/12/19 08:42:07;;;;;;;17.00;8.55;;;;;;;2.38;95.96;98062.81;5047894;28;20068;-59
2022/12/19 08:44:33;;;;;;;18.27;9.02;;;;;;;2.40;95.93;98058.94;5050381;28;20487;-60
2022/12/19 08:47:01;;;;;;;18.08;7.97;;;;;;;2.56;95.08;98055.28;5061079;28;20048;-59
2022/12/19 08:49:27;;;;;;;17.05;9.25;;;;;;;2.73;94.14;98055.94;5048596;28;20041;-60
2022/12/19 08:51:54;;;;;;;17.73;8.27;;;;;;;2.88;93.55;98059.63;5047582;28;20392;-59
2022/12/19 08:54:20;;;;;;;17.50;9.57;;;;;;;2.89;92.83;98059.44;5062493;28;20120;-59
2022/12/19 08:56:47;;;;;;;19.67;9.18;;;;;;;2.81;93.57;98057.69;5049071;28;20292;-57
2022/12/19 08:59:14;;;;;;;15.02;7.72;;;;;;;2.79;93.97;98053.53;5048805;28;20140;-59
2022/12/19 09:01:51;;;;;;;18.20;8.95;;;;;;;2.80;93.80;98050.66;5047062;28;20037;-60
2022/12/19 09:04:18;;;;;;;18.83;10.20;;;;;;;2.86;93.45;98044.59;5048668;28;20428;-59
2022/12/19 09:07:04;;;;;;;15.60;8.02;;;;;;;2.89;93.19;98040.72;5047889;28;20467;-58
2022/12/19 09:09:31;;;;;;;16.83;9.00;;;;;;;2.96;92.93;98041.63;5049302;28;20049;-58
2022/12/19 09:11:58;;;;;;;17.58;8.75;;;;;;;2.94;92.75;98038.31;5047463;28;20051;-58
2022/12/19 09:14:24;;;;;;;18.75;9.50;;;;;;;2.95;92.81;98039.97;5049982;28;20123;-58
2022/12/19 09:16:51;;;;;;;18.75;8.65;;;;;;;2.96;92.80;98041.63;5052738;28;20044;-58
2022/12/19 09:19:17;;;;;;;18.02;8.32;;;;;;;3.05;92.40;98042.34;5054947;28;20735;-58
2022/12/19 09:21:44;;;;;;;17.00;9.38;;;;;;;3.05;92.26;98036.16;5045558;28;20513;-58
2022/12/19 09:24:11;;;;;;;16.80;8.73;;;;;;;3.03;92.56;98039.03;5048843;28;20130;-60
2022/12/19 09:26:38;;;;;;;15.57;8.18;;;;;;;3.22;91.65;98034.09;5033919;28;20049;-59
2022/12/19 09:29:06;;;;;;;17.25;8.20;;;;;;;3.23;91.38;98038.44;5048764;28;20114;-60
2022/12/19 09:31:45;;;;;;;14.50;7.32;;;;;;;3.43;90.70;98032.50;5041908;28;20048;-60
2022/12/19 09:34:12;;;;;;;16.08;8.30;;;;;;;3.32;91.25;98029.28;5055042;28;20041;-59
2022/12/19 09:36:38;;;;;;;16.27;9.30;;;;;;;3.34;91.27;98026.41;5049295;28;20049;-59
2022/12/19 09:39:05;;;;;;;14.75;7.68;;;;;;;3.43;91.25;98043.19;5047312;28;20128;-59
2022/12/19 09:41:40;;;;;;;17.67;8.18;;;;;;;3.57;90.29;98041.50;5046172;28;20037;-60
2022/12/19 09:44:34;;;;;;;13.32;7.85;;;;;;;3.61;89.94;98034.75;5048798;28;20082;-60
2022/12/19 09:47:09;;;;;;;15.70;8.52;;;;;;;3.45;91.13;98044.66;5046970;28;20044;-59
2022/12/19 09:49:39;;;;;;;17.30;8.33;;;;;;;3.52;91.13;98042.06;5045125;28;20052;-60
2022/12/19 09:52:12;;;;;;;15.10;8.20;;;;;;;3.66;90.36;98039.50;5051335;28;20124;-59
2022/12/19 09:54:51;;;;;;;14.63;8.25;;;;;;;3.54;91.24;98036.50;5042581;28;20058;-58
2022/12/19 09:57:44;;;;;;;14.98;7.53;;;;;;;3.64;90.92;98034.34;5026612;28;20041;-59
2022/12/19 10:00:18;;;;;;;15.95;8.77;;;;;;;3.71;90.15;98029.88;5035984;28;20493;-59
2022/12/19 10:03:15;;;;;;;14.45;7.13;;;;;;;3.86;89.71;98031.66;5046752;28;20529;-59
2022/12/19 10:05:49;;;;;;;15.15;8.00;;;;;;;3.72;90.71;98028.88;5047680;28;20048;-59
2022/12/19 10:08:38;;;;;;;15.55;8.50;;;;;;;3.75;90.59;98022.28;5046203;28;20103;-57
2022/12/19 10:11:42;;;;;;;16.10;9.30;;;;;;;3.78;90.71;98016.56;5046028;28;20044;-59
2022/12/19 10:15:02;;;;;;;15.32;7.65;;;;;;;3.98;89.86;98011.38;5048111;28;20323;-59
2022/12/19 10:17:29;;;;;;;18.20;7.93;;;;;;;3.99;90.15;98018.41;5044160;28;20044;-60
2022/12/19 10:20:14;;;;;;;14.45;7.70;;;;;;;4.15;89.35;98016.44;5046405;28;20531;-57
2022/12/19 10:22:57;;;;;;;18.73;8.82;;;;;;;4.22;88.57;98017.34;5043196;28;20457;-54
2022/12/19 10:25:51;;;;;;;14.27;7.88;;;;;;;4.45;87.26;98010.06;5040614;28;20049;-56
2022/12/19 10:28:31;;;;;;;17.05;8.23;;;;;;;4.35;87.21;98007.72;5031789;28;20052;-55
2022/12/19 10:31:15;;;;;;;15.88;8.48;;;;;;;3.94;89.62;98004.72;5042125;28;20051;-59
2022/12/19 10:34:01;;;;;;;15.48;8.10;;;;;;;3.97;89.44;97992.78;5044867;28;20230;-59
2022/12/19 10:36:36;;;;;;;13.77;7.93;;;;;;;4.03;89.01;97990.16;5032550;28;20430;-53
2022/12/19 10:39:30;;;;;;;14.10;7.93;;;;;;;4.06;88.85;97991.66;5057582;28;20067;-56
2022/12/19 10:42:36;;;;;;;18.60;8.48;;;;;;;4.00;89.29;97993.25;5042272;28;20132;-54
2022/12/19 10:45:12;;;;;;;16.23;8.15;;;;;;;4.00;89.42;97995.09;5035995;28;20558;-56
2022/12/19 10:47:40;;;;;;;14.45;8.23;;;;;;;4.03;89.20;97992.84;5050961;28;20040;-55
2022/12/19 10:50:12;;;;;;;16.73;8.93;;;;;;;3.89;90.05;97993.78;5045806;28;20044;-55
2022/12/19 10:52:51;;;;;;;16.42;8.77;;;;;;;3.85;90.98;97982.63;5041775;28;20115;-55
2022/12/19 10:55:41;;;;;;;17.15;8.48;;;;;;;3.86;90.93;97970.03;5047297;28;20057;-59
2022/12/19 10:58:24;;;;;;;14.18;7.45;;;;;;;4.11;89.63;97969.63;5051264;28;20049;-57
2022/12/19 11:01:00;;;;;;;15.25;7.88;;;;;;;4.10;90.01;97957.25;5030059;28;20512;-57
2022/12/19 11:03:27;;;;;;;15.63;7.95;;;;;;;4.26;88.92;97954.28;5044600;28;20101;-57
2022/12/19 11:05:56;;;;;;;14.00;7.85;;;;;;;4.45;88.65;97956.44;5044730;28;20508;-58
2022/12/19 11:08:30;;;;;;;14.48;8.27;;;;;;;4.47;88.86;97965.09;5041816;28;20064;-57
2022/12/19 11:11:02;;;;;;;13.75;7.95;;;;;;;4.55;87.98;97962.25;5043518;28;20120;-58
2022/12/19 11:13:49;;;;;;;20.15;8.63;;;;;;;4.58;88.03;97961.03;5049594;28;20044;-56
2022/12/19 11:16:37;;;;;;;17.23;9.23;;;;;;;4.46;89.20;97948.19;5047720;28;20060;-55
2022/12/19 11:19:37;;;;;;;14.65;8.18;;;;;;;4.39;89.50;97952.69;5041915;28;20080;-57
2022/12/19 11:22:29;;;;;;;13.43;8.07;;;;;;;4.42;89.39;97953.13;5041696;28;20103;-59
2022/12/19 11:25:19;;;;;;;17.05;8.90;;;;;;;4.39;89.82;97958.06;5027873;28;20077;-59
2022/12/19 11:28:17;;;;;;;17.38;9.70;;;;;;;4.42;89.84;97954.97;5041059;28;20099;-58
2022/12/19 11:31:09;;;;;;;15.07;8.77;;;;;;;4.44;89.52;97950.25;5041834;28;20052;-59
2022/12/19 11:34:04;;;;;;;16.98;8.57;;;;;;;4.49;89.51;97949.66;5043944;28;20128;-59
2022/12/19 11:36:43;;;;;;;17.60;8.75;;;;;;;4.60;89.25;97945.59;5043346;28;20595;-58
2022/12/19 11:39:20;;;;;;;20.63;11.18;;;;;;;4.52;89.50;97944.72;5044317;28;20045;-58
2022/12/19 11:41:55;;;;;;;19.83;12.73;;;;;;;4.53;89.68;97938.31;5052578;28;20259;-59
2022/12/19 11:44:28;;;;;;;17.15;7.90;;;;;;;4.61;89.88;97933.81;5042847;28;20524;-58
2022/12/19 11:47:17;;;;;;;18.13;9.15;;;;;;;4.57;90.05;97921.84;5043502;28;20045;-59
2022/12/19 11:49:50;;;;;;;17.63;8.93;;;;;;;4.58;90.22;97915.44;5035812;28;20067;-58
2022/12/19 11:52:32;;;;;;;16.75;8.73;;;;;;;4.68;89.87;97910.50;5041455;28;20048;-59
2022/12/19 11:55:31;;;;;;;17.15;8.68;;;;;;;4.91;88.43;97912.06;5037525;28;20041;-58